Karachi Weather



Karachi's Current Weather

Temprature 25.9o mist

mist

Rain: 0 %

Min Temprature25.9o
Max Temprature25.9o
Humidity89
Wind Speed1.54 m/h
Sun Rise06:21:35
Sun Set18:24:39
Current Time: 26-Sep-2022 07:53:08
Lat/Lon: 24.9056, 67.0822




Karachi's Geo Location



Karachi's Weather Forecast

Time Overall Temp Min Temp Max Temp Humidity Wind Speed Rain
26-Sep-2022 (Mon)
08:00:00 few clouds 25.900 25.900 27.270 89 5.3 m/h 0 %
11:00:00 few clouds 27.200 27.200 29.810 79 5.74 m/h 0 %
14:00:00 scattered clouds 28.750 28.750 30.180 67 6.28 m/h 0 %
17:00:00 broken clouds 29.330 29.330 29.330 59 5.18 m/h 0 %
20:00:00 scattered clouds 28.080 28.080 28.080 66 4.33 m/h 0 %
23:00:00 few clouds 27.380 27.380 27.380 71 3.95 m/h 0 %
27-Sep-2022 (Tue)
02:00:00 clear sky 26.600 26.600 26.600 76 4.46 m/h 0 %
05:00:00 clear sky 26.110 26.110 26.110 78 4.05 m/h 0 %
08:00:00 clear sky 26.730 26.730 26.730 75 5.78 m/h 0 %
11:00:00 clear sky 29.160 29.160 29.160 64 6.64 m/h 0 %
14:00:00 clear sky 29.800 29.800 29.800 61 7.51 m/h 0 %
17:00:00 few clouds 28.630 28.630 28.630 66 6.42 m/h 0 %
20:00:00 few clouds 27.080 27.080 27.080 75 5.48 m/h 0 %
23:00:00 few clouds 26.470 26.470 26.470 78 5.59 m/h 0 %
28-Sep-2022 (Wed)
02:00:00 scattered clouds 26.300 26.300 26.300 78 5.21 m/h 0 %
05:00:00 broken clouds 25.910 25.910 25.910 80 5.41 m/h 0 %
08:00:00 overcast clouds 26.650 26.650 26.650 73 5.87 m/h 0 %
11:00:00 overcast clouds 27.900 27.900 27.900 68 6.24 m/h 0 %
14:00:00 overcast clouds 28.890 28.890 28.890 63 7.09 m/h 0 %
17:00:00 overcast clouds 28.350 28.350 28.350 64 6.44 m/h 0 %
20:00:00 scattered clouds 27.040 27.040 27.040 71 5.2 m/h 0 %
23:00:00 few clouds 26.430 26.430 26.430 75 5.39 m/h 0 %
29-Sep-2022 (Thu)
02:00:00 few clouds 25.800 25.800 25.800 77 5.28 m/h 0 %
05:00:00 scattered clouds 26.210 26.210 26.210 73 5.5 m/h 0 %
08:00:00 broken clouds 26.510 26.510 26.510 72 6.2 m/h 0 %
11:00:00 broken clouds 27.700 27.700 27.700 67 6.1 m/h 0 %
14:00:00 overcast clouds 28.870 28.870 28.870 62 6.51 m/h 0 %
17:00:00 broken clouds 28.420 28.420 28.420 63 5.76 m/h 0 %
20:00:00 scattered clouds 27.090 27.090 27.090 69 5.35 m/h 0 %
23:00:00 few clouds 26.440 26.440 26.440 74 5.12 m/h 0 %
30-Sep-2022 (Fri)
02:00:00 scattered clouds 25.930 25.930 25.930 77 5.09 m/h 0 %
05:00:00 scattered clouds 26.040 26.040 26.040 76 5.03 m/h 0 %
08:00:00 scattered clouds 26.520 26.520 26.520 74 5.78 m/h 0 %
11:00:00 scattered clouds 28.790 28.790 28.790 63 6.55 m/h 0 %
14:00:00 scattered clouds 29.600 29.600 29.600 60 7.07 m/h 0 %
17:00:00 scattered clouds 28.480 28.480 28.480 65 6.35 m/h 0 %
20:00:00 few clouds 27.010 27.010 27.010 72 5.79 m/h 0 %
23:00:00 few clouds 26.420 26.420 26.420 76 6.03 m/h 0 %
01-Oct-2022 (Sat)
02:00:00 few clouds 25.860 25.860 25.860 79 6.23 m/h 0 %
05:00:00 few clouds 25.870 25.870 25.870 77 6.1 m/h 0 %

Famous Cities (61)